sensor_id;sensor_type;location;lat;lon;timestamp;pressure;altitude;pressure_sealevel;temperature;humidity
60609;BME280;48221;53.528;9.884;2023-02-13T00:01:05;103727.47;;;6.59;100.00
60609;BME280;48221;53.528;9.884;2023-02-13T00:03:30;103726.56;;;6.58;100.00
60609;BME280;48221;53.528;9.884;2023-02-13T00:05:56;103731.75;;;6.58;100.00
60609;BME280;48221;53.528;9.884;2023-02-13T00:08:21;103729.94;;;6.57;100.00
60609;BME280;48221;53.528;9.884;2023-02-13T00:10:47;103727.19;;;6.56;100.00
60609;BME280;48221;53.528;9.884;2023-02-13T00:13:12;103729.66;;;6.54;100.00
60609;BME280;48221;53.528;9.884;2023-02-13T00:15:37;103731.22;;;6.52;100.00
60609;BME280;48221;53.528;9.884;2023-02-13T00:18:03;103732.91;;;6.52;100.00
60609;BME280;48221;53.528;9.884;2023-02-13T00:20:28;103734.59;;;6.51;100.00
60609;BME280;48221;53.528;9.884;2023-02-13T00:22:54;103729.41;;;6.51;100.00
60609;BME280;48221;53.528;9.884;2023-02-13T00:25:19;103726.81;;;6.51;100.00
60609;BME280;48221;53.528;9.884;2023-02-13T00:27:44;103737.19;;;6.51;100.00
60609;BME280;48221;53.528;9.884;2023-02-13T00:30:10;103722.41;;;6.50;100.00
60609;BME280;48221;53.528;9.884;2023-02-13T00:32:36;103720.59;;;6.49;100.00
60609;BME280;48221;53.528;9.884;2023-02-13T00:35:01;103723.00;;;6.48;100.00
60609;BME280;48221;53.528;9.884;2023-02-13T00:37:27;103719.50;;;6.47;100.00
60609;BME280;48221;53.528;9.884;2023-02-13T00:39:52;103717.81;;;6.48;100.00
60609;BME280;48221;53.528;9.884;2023-02-13T00:42:18;103713.53;;;6.48;100.00
60609;BME280;48221;53.528;9.884;2023-02-13T00:44:44;103718.59;;;6.47;100.00
60609;BME280;48221;53.528;9.884;2023-02-13T00:47:09;103725.47;;;6.46;100.00
60609;BME280;48221;53.528;9.884;2023-02-13T00:49:38;103721.97;;;6.46;100.00
60609;BME280;48221;53.528;9.884;2023-02-13T00:52:04;103715.88;;;6.45;100.00
60609;BME280;48221;53.528;9.884;2023-02-13T00:54:29;103717.44;;;6.43;100.00
60609;BME280;48221;53.528;9.884;2023-02-13T00:56:54;103721.84;;;6.44;100.00
60609;BME280;48221;53.528;9.884;2023-02-13T00:59:19;103734.81;;;6.44;100.00
60609;BME280;48221;53.528;9.884;2023-02-13T01:01:44;103721.56;;;6.41;100.00
60609;BME280;48221;53.528;9.884;2023-02-13T01:04:10;103720.66;;;6.40;100.00
60609;BME280;48221;53.528;9.884;2023-02-13T01:06:35;103721.56;;;6.41;100.00
60609;BME280;48221;53.528;9.884;2023-02-13T01:09:02;103724.16;;;6.41;100.00
60609;BME280;48221;53.528;9.884;2023-02-13T01:11:28;103716.38;;;6.41;100.00
60609;BME280;48221;53.528;9.884;2023-02-13T01:13:53;103712.75;;;6.39;100.00
60609;BME280;48221;53.528;9.884;2023-02-13T01:16:18;103712.75;;;6.39;100.00
60609;BME280;48221;53.528;9.884;2023-02-13T01:18:44;103717.94;;;6.39;100.00
60609;BME280;48221;53.528;9.884;2023-02-13T01:21:16;103712.63;;;6.37;100.00
60609;BME280;48221;53.528;9.884;2023-02-13T01:23:42;103704.84;;;6.37;100.00
60609;BME280;48221;53.528;9.884;2023-02-13T01:26:11;103713.53;;;6.38;100.00
60609;BME280;48221;53.528;9.884;2023-02-13T01:28:37;103716.13;;;6.38;100.00
60609;BME280;48221;53.528;9.884;2023-02-13T01:31:02;103708.34;;;6.38;100.00
60609;BME280;48221;53.528;9.884;2023-02-13T01:33:28;103709.13;;;6.37;100.00
60609;BME280;48221;53.528;9.884;2023-02-13T01:35:54;103708.81;;;6.34;100.00
60609;BME280;48221;53.528;9.884;2023-02-13T01:38:19;103702.72;;;6.33;100.00
60609;BME280;48221;53.528;9.884;2023-02-13T01:40:53;103704.53;;;6.34;100.00
60609;BME280;48221;53.528;9.884;2023-02-13T01:43:19;103707.00;;;6.33;100.00
60609;BME280;48221;53.528;9.884;2023-02-13T01:45:50;103697.41;;;6.32;100.00
60609;BME280;48221;53.528;9.884;2023-02-13T01:48:19;103694.81;;;6.32;100.00
60609;BME280;48221;53.528;9.884;2023-02-13T01:51:06;103688.84;;;6.33;100.00
60609;BME280;48221;53.528;9.884;2023-02-13T01:53:38;103686.13;;;6.31;100.00
60609;BME280;48221;53.528;9.884;2023-02-13T01:56:12;103682.63;;;6.31;100.00
60609;BME280;48221;53.528;9.884;2023-02-13T01:58:40;103686.00;;;6.30;100.00
60609;BME280;48221;53.528;9.884;2023-02-13T02:01:08;103683.41;;;6.30;100.00
60609;BME280;48221;53.528;9.884;2023-02-13T02:03:43;103682.38;;;6.28;100.00
60609;BME280;48221;53.528;9.884;2023-02-13T02:06:22;103680.69;;;6.28;100.00
60609;BME280;48221;53.528;9.884;2023-02-13T02:08:51;103683.13;;;6.27;100.00
60609;BME280;48221;53.528;9.884;2023-02-13T02:11:29;103676.28;;;6.27;100.00
60609;BME280;48221;53.528;9.884;2023-02-13T02:13:57;103679.47;;;6.25;100.00
60609;BME280;48221;53.528;9.884;2023-02-13T02:16:24;103669.28;;;6.26;100.00
60609;BME280;48221;53.528;9.884;2023-02-13T02:18:49;103672.78;;;6.27;100.00
60609;BME280;48221;53.528;9.884;2023-02-13T02:24:20;103669.88;;;6.24;100.00
60609;BME280;48221;53.528;9.884;2023-02-13T02:27:13;103667.28;;;6.24;100.00
60609;BME280;48221;53.528;9.884;2023-02-13T02:35:42;103669.88;;;6.24;100.00
60609;BME280;48221;53.528;9.884;2023-02-13T02:38:39;103666.25;;;6.22;100.00
60609;BME280;48221;53.528;9.884;2023-02-13T02:41:41;103667.03;;;6.21;100.00
60609;BME280;48221;53.528;9.884;2023-02-13T02:44:19;103672.97;;;6.20;100.00
60609;BME280;48221;53.528;9.884;2023-02-13T02:46:57;103667.81;;;6.20;100.00
60609;BME280;48221;53.528;9.884;2023-02-13T02:49:49;103672.97;;;6.20;100.00
60609;BME280;48221;53.528;9.884;2023-02-13T02:55:05;103674.53;;;6.18;100.00
60609;BME280;48221;53.528;9.884;2023-02-13T02:58:18;103664.16;;;6.18;100.00
60609;BME280;48221;53.528;9.884;2023-02-13T03:00:40;103654.28;;;6.13;100.00
60609;BME280;48221;53.528;9.884;2023-02-13T03:03:25;103653.38;;;6.13;100.00
60609;BME280;48221;53.528;9.884;2023-02-13T03:06:14;103660.25;;;6.12;100.00
60609;BME280;48221;53.528;9.884;2023-02-13T03:08:43;103662.81;;;6.12;100.00
60609;BME280;48221;53.528;9.884;2023-02-13T03:11:28;103664.50;;;6.12;100.00
60609;BME280;48221;53.528;9.884;2023-02-13T03:14:15;103662.69;;;6.11;100.00
60609;BME280;48221;53.528;9.884;2023-02-13T03:16:44;103666.97;;;6.10;100.00
60609;BME280;48221;53.528;9.884;2023-02-13T03:19:45;103675.66;;;6.11;100.00
60609;BME280;48221;53.528;9.884;2023-02-13T03:22:43;103670.34;;;6.09;100.00
60609;BME280;48221;53.528;9.884;2023-02-13T03:25:20;103666.97;;;6.10;100.00
60609;BME280;48221;53.528;9.884;2023-02-13T03:34:00;103669.16;;;6.06;100.00
60609;BME280;48221;53.528;9.884;2023-02-13T03:39:39;103666.44;;;6.04;100.00
60609;BME280;48221;53.528;9.884;2023-02-13T03:42:37;103668.00;;;6.02;100.00
60609;BME280;48221;53.528;9.884;2023-02-13T03:45:29;103677.44;;;6.02;100.00
60609;BME280;48221;53.528;9.884;2023-02-13T03:48:18;103674.56;;;5.99;100.00
60609;BME280;48221;53.528;9.884;2023-02-13T03:51:06;103679.63;;;5.97;100.00
60609;BME280;48221;53.528;9.884;2023-02-13T03:53:34;103673.53;;;5.97;100.00
60609;BME280;48221;53.528;9.884;2023-02-13T03:56:03;103670.03;;;5.96;100.00
60609;BME280;48221;53.528;9.884;2023-02-13T03:58:51;103673.53;;;5.97;100.00
60609;BME280;48221;53.528;9.884;2023-02-13T04:01:38;103676.13;;;5.97;100.00
60609;BME280;48221;53.528;9.884;2023-02-13T04:04:20;103677.81;;;5.96;100.00
60609;BME280;48221;53.528;9.884;2023-02-13T04:06:54;103668.34;;;5.97;100.00
60609;BME280;48221;53.528;9.884;2023-02-13T04:09:21;103670.94;;;5.97;100.00
60609;BME280;48221;53.528;9.884;2023-02-13T04:12:17;103677.81;;;5.96;100.00
60609;BME280;48221;53.528;9.884;2023-02-13T04:17:35;103679.47;;;5.96;100.00
60609;BME280;48221;53.528;9.884;2023-02-13T04:20:02;103677.66;;;5.95;100.00
60609;BME280;48221;53.528;9.884;2023-02-13T04:22:28;103675.97;;;5.95;100.00
60609;BME280;48221;53.528;9.884;2023-02-13T04:24:54;103682.06;;;5.96;100.00
60609;BME280;48221;53.528;9.884;2023-02-13T04:27:19;103672.47;;;5.95;100.00
60609;BME280;48221;53.528;9.884;2023-02-13T04:29:44;103672.34;;;5.93;100.00
60609;BME280;48221;53.528;9.884;2023-02-13T04:32:10;103670.81;;;5.95;100.00
60609;BME280;48221;53.528;9.884;2023-02-13T04:34:36;103674.16;;;5.94;100.00
60609;BME280;48221;53.528;9.884;2023-02-13T04:37:01;103662.25;;;5.96;100.00
60609;BME280;48221;53.528;9.884;2023-02-13T04:39:27;103655.38;;;5.97;100.00
60609;BME280;48221;53.528;9.884;2023-02-13T04:41:52;103664.06;;;5.97;100.00
60609;BME280;48221;53.528;9.884;2023-02-13T04:44:17;103652.78;;;5.97;100.00
60609;BME280;48221;53.528;9.884;2023-02-13T04:46:43;103664.06;;;5.97;100.00
60609;BME280;48221;53.528;9.884;2023-02-13T04:49:09;103658.88;;;5.97;100.00
60609;BME280;48221;53.528;9.884;2023-02-13T04:51:34;103667.44;;;5.96;100.00
60609;BME280;48221;53.528;9.884;2023-02-13T04:54:00;103659.66;;;5.96;100.00
60609;BME280;48221;53.528;9.884;2023-02-13T04:56:25;103657.97;;;5.97;100.00
60609;BME280;48221;53.528;9.884;2023-02-13T04:58:50;103655.25;;;5.95;100.00
60609;BME280;48221;53.528;9.884;2023-02-13T05:01:16;103663.03;;;5.95;100.00
60609;BME280;48221;53.528;9.884;2023-02-13T05:03:42;103662.13;;;5.95;100.00
60609;BME280;48221;53.528;9.884;2023-02-13T05:06:07;103658.63;;;5.94;100.00
60609;BME280;48221;53.528;9.884;2023-02-13T05:08:33;103654.34;;;5.95;100.00
60609;BME280;48221;53.528;9.884;2023-02-13T05:10:58;103663.03;;;5.95;100.00
60609;BME280;48221;53.528;9.884;2023-02-13T05:13:24;103661.97;;;5.93;100.00
60609;BME280;48221;53.528;9.884;2023-02-13T05:15:49;103667.16;;;5.93;100.00
60609;BME280;48221;53.528;9.884;2023-02-13T05:18:16;103663.53;;;5.91;100.00
60609;BME280;48221;53.528;9.884;2023-02-13T05:20:42;103666.13;;;5.91;100.00
60609;BME280;48221;53.528;9.884;2023-02-13T05:23:12;103661.84;;;5.92;100.00
60609;BME280;48221;53.528;9.884;2023-02-13T05:25:47;103663.53;;;5.91;100.00
60609;BME280;48221;53.528;9.884;2023-02-13T05:28:12;103658.34;;;5.91;100.00
60609;BME280;48221;53.528;9.884;2023-02-13T05:30:57;103651.31;;;5.90;100.00
60609;BME280;48221;53.528;9.884;2023-02-13T05:33:22;103659.09;;;5.90;100.00
60609;BME280;48221;53.528;9.884;2023-02-13T05:35:47;103665.00;;;5.89;100.00
60609;BME280;48221;53.528;9.884;2023-02-13T05:38:13;103668.38;;;5.88;100.00
60609;BME280;48221;53.528;9.884;2023-02-13T05:40:38;103673.44;;;5.86;100.00
60609;BME280;48221;53.528;9.884;2023-02-13T05:43:03;103665.53;;;5.85;100.00
60609;BME280;48221;53.528;9.884;2023-02-13T05:45:28;103662.03;;;5.84;100.00
60609;BME280;48221;53.528;9.884;2023-02-13T05:47:54;103670.72;;;5.85;100.00
60609;BME280;48221;53.528;9.884;2023-02-13T05:50:19;103674.84;;;5.83;100.00
60609;BME280;48221;53.528;9.884;2023-02-13T05:52:44;103670.44;;;5.82;100.00
60609;BME280;48221;53.528;9.884;2023-02-13T05:55:09;103675.50;;;5.80;100.00
60609;BME280;48221;53.528;9.884;2023-02-13T05:57:35;103675.34;;;5.79;100.00
60609;BME280;48221;53.528;9.884;2023-02-13T06:00:00;103681.56;;;5.81;100.00
60609;BME280;48221;53.528;9.884;2023-02-13T06:02:26;103679.75;;;5.80;100.00
60609;BME280;48221;53.528;9.884;2023-02-13T06:04:51;103684.03;;;5.79;100.00
60609;BME280;48221;53.528;9.884;2023-02-13T06:07:16;103687.53;;;5.80;100.00
60609;BME280;48221;53.528;9.884;2023-02-13T06:09:41;103689.81;;;5.77;100.00
60609;BME280;48221;53.528;9.884;2023-02-13T06:12:07;103693.31;;;5.77;100.00
60609;BME280;48221;53.528;9.884;2023-02-13T06:14:32;103691.63;;;5.78;100.00
60609;BME280;48221;53.528;9.884;2023-02-13T06:16:59;103698.66;;;5.79;100.00
60609;BME280;48221;53.528;9.884;2023-02-13T06:19:24;103691.63;;;5.78;100.00
60609;BME280;48221;53.528;9.884;2023-02-13T06:21:50;103696.81;;;5.78;100.00
60609;BME280;48221;53.528;9.884;2023-02-13T06:24:15;103694.09;;;5.76;100.00
60609;BME280;48221;53.528;9.884;2023-02-13T06:26:40;103695.00;;;5.77;100.00
60609;BME280;48221;53.528;9.884;2023-02-13T06:29:06;103690.47;;;5.74;100.00
60609;BME280;48221;53.528;9.884;2023-02-13T06:31:32;103696.56;;;5.75;100.00
60609;BME280;48221;53.528;9.884;2023-02-13T06:33:58;103689.69;;;5.75;100.00
60609;BME280;48221;53.528;9.884;2023-02-13T06:36:23;103707.69;;;5.74;100.00
60609;BME280;48221;53.528;9.884;2023-02-13T06:38:48;103704.31;;;5.75;100.00
60609;BME280;48221;53.528;9.884;2023-02-13T06:41:13;103708.72;;;5.76;100.00
60609;BME280;48221;53.528;9.884;2023-02-13T06:43:39;103707.81;;;5.75;100.00
60609;BME280;48221;53.528;9.884;2023-02-13T06:46:05;103707.06;;;5.76;100.00
60609;BME280;48221;53.528;9.884;2023-02-13T06:48:30;103717.28;;;5.75;100.00
60609;BME280;48221;53.528;9.884;2023-02-13T06:50:56;103708.59;;;5.74;100.00
60609;BME280;48221;53.528;9.884;2023-02-13T06:53:21;103710.28;;;5.74;100.00
60609;BME280;48221;53.528;9.884;2023-02-13T06:55:50;103711.19;;;5.74;100.00
60609;BME280;48221;53.528;9.884;2023-02-13T06:58:16;103724.28;;;5.76;100.00
60609;BME280;48221;53.528;9.884;2023-02-13T07:00:41;103718.31;;;5.77;100.00
60609;BME280;48221;53.528;9.884;2023-02-13T07:03:06;103726.09;;;5.77;100.00
60609;BME280;48221;53.528;9.884;2023-02-13T07:05:33;103732.19;;;5.77;100.00
60609;BME280;48221;53.528;9.884;2023-02-13T07:07:59;103735.69;;;5.78;100.00
60609;BME280;48221;53.528;9.884;2023-02-13T07:10:24;103734.94;;;5.79;100.00
60609;BME280;48221;53.528;9.884;2023-02-13T07:12:49;103731.41;;;5.78;100.00
60609;BME280;48221;53.528;9.884;2023-02-13T07:15:15;103734.00;;;5.78;100.00
60609;BME280;48221;53.528;9.884;2023-02-13T07:17:40;103747.13;;;5.80;100.00
60609;BME280;48221;53.528;9.884;2023-02-13T07:20:06;103740.13;;;5.79;100.00
60609;BME280;48221;53.528;9.884;2023-02-13T07:22:33;103741.19;;;5.81;100.00
60609;BME280;48221;53.528;9.884;2023-02-13T07:24:59;103733.41;;;5.81;100.00
60609;BME280;48221;53.528;9.884;2023-02-13T07:27:25;103730.81;;;5.81;100.00
60609;BME280;48221;53.528;9.884;2023-02-13T07:29:53;103729.41;;;5.84;100.00
60609;BME280;48221;53.528;9.884;2023-02-13T07:32:18;103740.53;;;5.83;100.00
60609;BME280;48221;53.528;9.884;2023-02-13T07:34:44;103734.31;;;5.81;100.00
60609;BME280;48221;53.528;9.884;2023-02-13T07:37:09;103738.72;;;5.82;100.00
60609;BME280;48221;53.528;9.884;2023-02-13T07:39:35;103737.94;;;5.83;100.00
60609;BME280;48221;53.528;9.884;2023-02-13T07:42:03;103733.69;;;5.84;100.00
60609;BME280;48221;53.528;9.884;2023-02-13T07:44:29;103747.53;;;5.84;100.00
60609;BME280;48221;53.528;9.884;2023-02-13T07:46:54;103745.84;;;5.85;100.00
60609;BME280;48221;53.528;9.884;2023-02-13T07:49:19;103748.44;;;5.85;100.00
60609;BME280;48221;53.528;9.884;2023-02-13T07:51:44;103747.22;;;5.90;100.00
60609;BME280;48221;53.528;9.884;2023-02-13T07:54:10;103751.66;;;5.91;100.00
60609;BME280;48221;53.528;9.884;2023-02-13T07:56:35;103749.06;;;5.91;100.00
60609;BME280;48221;53.528;9.884;2023-02-13T07:59:00;103761.38;;;5.94;100.00
60609;BME280;48221;53.528;9.884;2023-02-13T08:01:26;103757.09;;;5.94;100.00
60609;BME280;48221;53.528;9.884;2023-02-13T08:03:51;103762.28;;;5.94;100.00
60609;BME280;48221;53.528;9.884;2023-02-13T08:06:17;103753.75;;;5.95;100.00
60609;BME280;48221;53.528;9.884;2023-02-13T08:08:43;103756.59;;;5.98;100.00
60609;BME280;48221;53.528;9.884;2023-02-13T08:11:23;103762.81;;;6.00;100.00
60609;BME280;48221;53.528;9.884;2023-02-13T08:14:10;103754.91;;;5.99;100.00
60609;BME280;48221;53.528;9.884;2023-02-13T08:16:36;103760.38;;;6.02;100.00
60609;BME280;48221;53.528;9.884;2023-02-13T08:19:01;103763.13;;;6.03;100.00
60609;BME280;48221;53.528;9.884;2023-02-13T08:21:26;103758.22;;;6.06;100.00
60609;BME280;48221;53.528;9.884;2023-02-13T08:23:51;103750.56;;;6.08;100.00
60609;BME280;48221;53.528;9.884;2023-02-13T08:26:17;103746.44;;;6.10;100.00
60609;BME280;48221;53.528;9.884;2023-02-13T08:28:42;103747.47;;;6.12;100.00
60609;BME280;48221;53.528;9.884;2023-02-13T08:31:11;103748.56;;;6.14;100.00
60609;BME280;48221;53.528;9.884;2023-02-13T08:33:36;103747.13;;;6.18;100.00
60609;BME280;48221;53.528;9.884;2023-02-13T08:36:03;103746.50;;;6.20;100.00
60609;BME280;48221;53.528;9.884;2023-02-13T08:38:28;103745.84;;;6.23;100.00
60609;BME280;48221;53.528;9.884;2023-02-13T08:40:56;103751.94;;;6.23;100.00
60609;BME280;48221;53.528;9.884;2023-02-13T08:43:21;103741.22;;;6.29;100.00
60609;BME280;48221;53.528;9.884;2023-02-13T08:45:46;103753.44;;;6.30;100.00
60609;BME280;48221;53.528;9.884;2023-02-13T08:48:12;103760.44;;;6.31;100.00
60609;BME280;48221;53.528;9.884;2023-02-13T08:50:37;103758.59;;;6.30;100.00
60609;BME280;48221;53.528;9.884;2023-02-13T08:53:03;103763.78;;;6.30;100.00
60609;BME280;48221;53.528;9.884;2023-02-13T08:55:28;103760.16;;;6.28;100.00
60609;BME280;48221;53.528;9.884;2023-02-13T08:57:58;103756.91;;;6.30;100.00
60609;BME280;48221;53.528;9.884;2023-02-13T09:00:23;103761.47;;;6.33;100.00
60609;BME280;48221;53.528;9.884;2023-02-13T09:02:49;103762.50;;;6.35;100.00
60609;BME280;48221;53.528;9.884;2023-02-13T09:05:14;103763.72;;;6.38;100.00
60609;BME280;48221;53.528;9.884;2023-02-13T09:07:39;103766.56;;;6.41;100.00
60609;BME280;48221;53.528;9.884;2023-02-13T09:10:05;103763.97;;;6.41;100.00
60609;BME280;48221;53.528;9.884;2023-02-13T09:12:31;103762.56;;;6.45;100.00
60609;BME280;48221;53.528;9.884;2023-02-13T09:14:56;103751.41;;;6.46;100.00
60609;BME280;48221;53.528;9.884;2023-02-13T09:17:21;103765.41;;;6.48;100.00
60609;BME280;48221;53.528;9.884;2023-02-13T09:19:46;103761.19;;;6.49;100.00
60609;BME280;48221;53.528;9.884;2023-02-13T09:22:12;103759.63;;;6.51;100.00
60609;BME280;48221;53.528;9.884;2023-02-13T09:24:37;103767.94;;;6.57;100.00
60609;BME280;48221;53.528;9.884;2023-02-13T09:27:03;103762.88;;;6.58;100.00
60609;BME280;48221;53.528;9.884;2023-02-13T09:29:29;103764.06;;;6.62;100.00
60609;BME280;48221;53.528;9.884;2023-02-13T09:31:55;103765.25;;;6.65;100.00
60609;BME280;48221;53.528;9.884;2023-02-13T09:34:21;103759.53;;;6.69;100.00
60609;BME280;48221;53.528;9.884;2023-02-13T09:36:51;103759.69;;;6.71;100.00
60609;BME280;48221;53.528;9.884;2023-02-13T09:39:17;103760.47;;;6.70;100.00
60609;BME280;48221;53.528;9.884;2023-02-13T09:41:43;103757.25;;;6.72;100.00
60609;BME280;48221;53.528;9.884;2023-02-13T09:44:43;103764.50;;;6.77;100.00
60609;BME280;48221;53.528;9.884;2023-02-13T09:47:13;103765.69;;;6.80;100.00
60609;BME280;48221;53.528;9.884;2023-02-13T09:49:43;103763.22;;;6.82;100.00
60609;BME280;48221;53.528;9.884;2023-02-13T09:52:10;103769.19;;;6.81;100.00
60609;BME280;48221;53.528;9.884;2023-02-13T09:54:36;103769.31;;;6.82;100.00
60609;BME280;48221;53.528;9.884;2023-02-13T09:57:09;103777.25;;;6.84;100.00
60609;BME280;48221;53.528;9.884;2023-02-13T10:15:42;103766.41;;;6.98;100.00
60609;BME280;48221;53.528;9.884;2023-02-13T10:18:16;103757.03;;;7.00;100.00
60609;BME280;48221;53.528;9.884;2023-02-13T10:20:46;103759.91;;;7.03;100.00
60609;BME280;48221;53.528;9.884;2023-02-13T10:23:25;103756.03;;;7.08;100.00
60609;BME280;48221;53.528;9.884;2023-02-13T10:26:02;103762.00;;;7.07;100.00
60609;BME280;48221;53.528;9.884;2023-02-13T10:31:02;103758.09;;;7.12;100.00
60609;BME280;48221;53.528;9.884;2023-02-13T10:33:33;103749.53;;;7.13;100.00
60609;BME280;48221;53.528;9.884;2023-02-13T10:38:40;103748.00;;;7.25;100.00
60609;BME280;48221;53.528;9.884;2023-02-13T10:41:19;103748.25;;;7.28;100.00
60609;BME280;48221;53.528;9.884;2023-02-13T10:54:26;103757.09;;;7.41;100.00
60609;BME280;48221;53.528;9.884;2023-02-13T10:59:50;103748.25;;;7.49;100.00
60609;BME280;48221;53.528;9.884;2023-02-13T11:02:27;103745.91;;;7.52;100.00
60609;BME280;48221;53.528;9.884;2023-02-13T11:05:01;103739.19;;;7.54;100.00
60609;BME280;48221;53.528;9.884;2023-02-13T11:07:29;103740.47;;;7.59;100.00
60609;BME280;48221;53.528;9.884;2023-02-13T11:09:58;103735.81;;;7.65;100.00
60609;BME280;48221;53.528;9.884;2023-02-13T11:12:29;103725.41;;;7.65;100.00
60609;BME280;48221;53.528;9.884;2023-02-13T11:15:01;103733.22;;;7.55;100.00
60609;BME280;48221;53.528;9.884;2023-02-13T11:17:29;103741.63;;;7.63;100.00
60609;BME280;48221;53.528;9.884;2023-02-13T11:19:57;103748.41;;;7.60;100.00
60609;BME280;48221;53.528;9.884;2023-02-13T11:22:52;103746.81;;;7.63;100.00
60609;BME280;48221;53.528;9.884;2023-02-13T11:25:22;103747.09;;;7.55;100.00
60609;BME280;48221;53.528;9.884;2023-02-13T11:27:50;103737.34;;;7.63;100.00
60609;BME280;48221;53.528;9.884;2023-02-13T11:32:57;103732.94;;;7.62;100.00
60609;BME280;48221;53.528;9.884;2023-02-13T11:38:19;103723.19;;;7.70;100.00
60609;BME280;48221;53.528;9.884;2023-02-13T11:40:48;103718.63;;;7.77;100.00
60609;BME280;48221;53.528;9.884;2023-02-13T11:43:27;103710.84;;;7.77;100.00
60609;BME280;48221;53.528;9.884;2023-02-13T11:46:24;103714.47;;;7.79;100.00
60609;BME280;48221;53.528;9.884;2023-02-13T11:48:59;103725.22;;;7.84;100.00
60609;BME280;48221;53.528;9.884;2023-02-13T11:51:43;103723.53;;;7.84;100.00
60609;BME280;48221;53.528;9.884;2023-02-13T11:56:49;103727.44;;;7.89;100.00
60609;BME280;48221;53.528;9.884;2023-02-13T11:59:14;103736.16;;;7.90;100.00
60609;BME280;48221;53.528;9.884;2023-02-13T12:01:40;103727.69;;;7.93;100.00
60609;BME280;48221;53.528;9.884;2023-02-13T12:04:20;103724.31;;;7.94;100.00
60609;BME280;48221;53.528;9.884;2023-02-13T12:07:01;103718.84;;;8.01;100.00
60609;BME280;48221;53.528;9.884;2023-02-13T12:09:27;103719.63;;;8.00;100.00
60609;BME280;48221;53.528;9.884;2023-02-13T12:11:57;103715.69;;;8.05;100.00
60609;BME280;48221;53.528;9.884;2023-02-13T12:14:29;103719.34;;;8.07;100.00
60609;BME280;48221;53.528;9.884;2023-02-13T12:17:20;103714.56;;;8.01;100.00
60609;BME280;48221;53.528;9.884;2023-02-13T12:19:48;103707.66;;;8.02;100.00
60609;BME280;48221;53.528;9.884;2023-02-13T12:22:42;103708.03;;;7.96;100.00
60609;BME280;48221;53.528;9.884;2023-02-13T12:28:11;103718.06;;;8.02;100.00
60609;BME280;48221;53.528;9.884;2023-02-13T12:30:57;103712.31;;;8.06;100.00
60609;BME280;48221;53.528;9.884;2023-02-13T12:36:30;103707.38;;;7.99;100.00
60609;BME280;48221;53.528;9.884;2023-02-13T12:47:38;103710.75;;;8.08;100.00
60609;BME280;48221;53.528;9.884;2023-02-13T12:50:25;103704.63;;;8.07;100.00
60609;BME280;48221;53.528;9.884;2023-02-13T13:03:54;103684.63;;;8.06;100.00
60609;BME280;48221;53.528;9.884;2023-02-13T13:12:11;103699.34;;;7.96;100.00
60609;BME280;48221;53.528;9.884;2023-02-13T13:18:01;103700.63;;;8.01;100.00
60609;BME280;48221;53.528;9.884;2023-02-13T13:20:36;103690.47;;;8.04;100.00
60609;BME280;48221;53.528;9.884;2023-02-13T13:23:10;103690.25;;;8.01;100.00
60609;BME280;48221;53.528;9.884;2023-02-13T13:26:00;103684.53;;;7.95;100.00
60609;BME280;48221;53.528;9.884;2023-02-13T13:28:41;103692.88;;;7.90;100.00
60609;BME280;48221;53.528;9.884;2023-02-13T13:31:08;103692.97;;;7.92;100.00
60609;BME280;48221;53.528;9.884;2023-02-13T13:33:34;103691.28;;;7.93;100.00
60609;BME280;48221;53.528;9.884;2023-02-13T13:41:26;103690.03;;;7.87;100.00
60609;BME280;48221;53.528;9.884;2023-02-13T13:44:15;103684.03;;;7.88;100.00
60609;BME280;48221;53.528;9.884;2023-02-13T13:46:51;103676.47;;;7.92;100.00
60609;BME280;48221;53.528;9.884;2023-02-13T13:52:20;103662.59;;;7.81;100.00
60609;BME280;48221;53.528;9.884;2023-02-13T13:54:46;103662.34;;;7.88;100.00
60609;BME280;48221;53.528;9.884;2023-02-13T13:57:16;103657.94;;;7.77;100.00
60609;BME280;48221;53.528;9.884;2023-02-13T14:05:18;103662.47;;;7.79;100.00
60609;BME280;48221;53.528;9.884;2023-02-13T14:07:46;103668.47;;;7.78;100.00
60609;BME280;48221;53.528;9.884;2023-02-13T14:15:48;103671.97;;;7.69;100.00
60609;BME280;48221;53.528;9.884;2023-02-13T14:23:23;103672.78;;;7.68;100.00
60609;BME280;48221;53.528;9.884;2023-02-13T14:28:34;103672.66;;;7.66;100.00
60609;BME280;48221;53.528;9.884;2023-02-13T14:31:06;103667.94;;;7.62;100.00
60609;BME280;48221;53.528;9.884;2023-02-13T14:33:33;103671.47;;;7.63;100.00
60609;BME280;48221;53.528;9.884;2023-02-13T14:36:06;103672.25;;;7.61;100.00
60609;BME280;48221;53.528;9.884;2023-02-13T14:38:33;103673.28;;;7.64;100.00
60609;BME280;48221;53.528;9.884;2023-02-13T14:40:59;103668.75;;;7.61;100.00
60609;BME280;48221;53.528;9.884;2023-02-13T14:43:34;103659.13;;;7.60;100.00
60609;BME280;48221;53.528;9.884;2023-02-13T14:48:57;103664.84;;;7.66;100.00
60609;BME280;48221;53.528;9.884;2023-02-13T14:51:35;103663.16;;;7.67;100.00
60609;BME280;48221;53.528;9.884;2023-02-13T14:54:24;103671.88;;;7.67;100.00
60609;BME280;48221;53.528;9.884;2023-02-13T14:56:52;103671.88;;;7.67;100.00
60609;BME280;48221;53.528;9.884;2023-02-13T14:59:24;103671.88;;;7.67;100.00
60609;BME280;48221;53.528;9.884;2023-02-13T15:02:06;103670.56;;;7.62;100.00
60609;BME280;48221;53.528;9.884;2023-02-13T15:04:40;103664.88;;;7.56;100.00
60609;BME280;48221;53.528;9.884;2023-02-13T15:07:14;103660.44;;;7.55;100.00
60609;BME280;48221;53.528;9.884;2023-02-13T15:09:45;103659.41;;;7.53;100.00
60609;BME280;48221;53.528;9.884;2023-02-13T15:12:33;103653.44;;;7.44;100.00
60609;BME280;48221;53.528;9.884;2023-02-13T15:15:00;103654.22;;;7.43;100.00
60609;BME280;48221;53.528;9.884;2023-02-13T15:17:26;103647.22;;;7.42;100.00